createdAt,value
2018-05-01T00:02:09.906Z,5.03
2018-05-01T00:04:39.563Z,5.57
2018-05-01T00:07:09.170Z,5.00
2018-05-01T00:09:38.780Z,5.00
2018-05-01T00:12:08.422Z,4.80
2018-05-01T00:14:38.050Z,4.80
2018-05-01T00:17:07.401Z,4.80
2018-05-01T00:19:37.059Z,4.77
2018-05-01T00:22:06.677Z,4.13
2018-05-01T00:24:36.321Z,4.50
2018-05-01T00:27:05.969Z,4.00
2018-05-01T00:29:35.597Z,4.53
2018-05-01T00:32:04.267Z,4.70
2018-05-01T00:34:33.705Z,4.80
2018-05-01T00:37:03.339Z,4.20
2018-05-01T00:39:32.959Z,4.70
2018-05-01T00:42:02.618Z,4.67
2018-05-01T00:44:31.986Z,4.33
2018-05-01T00:47:01.600Z,4.47
2018-05-01T00:49:31.259Z,4.50
2018-05-01T00:52:00.879Z,4.57
2018-05-01T00:54:30.155Z,4.80
2018-05-01T00:56:59.864Z,4.70
2018-05-01T00:59:29.490Z,4.67
2018-05-01T01:01:59.139Z,5.53
2018-05-01T01:04:28.785Z,5.30
2018-05-01T01:06:58.409Z,5.67
2018-05-01T01:09:28.054Z,6.10
2018-05-01T01:11:57.711Z,5.27
2018-05-01T01:14:27.098Z,6.00
2018-05-01T01:16:56.748Z,5.77
2018-05-01T01:19:26.398Z,5.70
2018-05-01T01:21:56.020Z,5.57
2018-05-01T01:24:25.694Z,5.10
2018-05-01T01:26:55.438Z,5.57
2018-05-01T01:29:25.060Z,6.10
2018-05-01T01:31:54.130Z,7.77
2018-05-01T01:34:23.284Z,8.07
2018-05-01T01:36:51.799Z,8.17
2018-05-01T01:39:20.318Z,8.03
2018-05-01T01:41:48.879Z,8.77
2018-05-01T01:44:17.408Z,8.77
2018-05-01T01:46:45.915Z,8.53
2018-05-01T01:49:14.556Z,9.30
2018-05-01T01:51:43.072Z,9.40
2018-05-01T01:54:11.602Z,8.87
2018-05-01T01:56:40.162Z,8.70
2018-05-01T01:59:08.670Z,8.47
2018-05-01T02:01:37.188Z,8.50
2018-05-01T02:04:05.751Z,8.53
2018-05-01T02:06:34.250Z,7.90
2018-05-01T02:09:02.759Z,8.07
2018-05-01T02:11:31.045Z,8.60
2018-05-01T02:13:59.574Z,9.60
2018-05-01T02:16:28.093Z,8.73
2018-05-01T02:18:56.643Z,8.37
2018-05-01T02:21:25.145Z,8.30
2018-05-01T02:23:53.381Z,7.83
2018-05-01T02:26:21.983Z,9.37
2018-05-01T02:28:50.678Z,8.40
2018-05-01T02:31:19.188Z,8.03
2018-05-01T02:33:47.754Z,9.00
2018-05-01T02:36:16.274Z,9.30
2018-05-01T02:38:44.792Z,8.60
2018-05-01T02:41:13.401Z,8.70
2018-05-01T02:43:42.078Z,8.10
2018-05-01T02:46:10.590Z,7.87
2018-05-01T02:48:39.136Z,7.73
2018-05-01T02:51:07.647Z,7.60
2018-05-01T02:53:36.232Z,6.83
2018-05-01T02:56:06.498Z,7.37
2018-05-01T02:58:36.089Z,7.87
2018-05-01T03:01:04.648Z,7.47
2018-05-01T03:03:33.191Z,7.50
2018-05-01T03:06:01.700Z,8.13
2018-05-01T03:08:30.211Z,7.20
2018-05-01T03:10:58.763Z,7.67
2018-05-01T03:13:27.398Z,8.87
2018-05-01T03:15:55.912Z,8.90
2018-05-01T03:18:24.480Z,9.17
2018-05-01T03:20:52.982Z,9.10
2018-05-01T03:23:21.487Z,8.33
2018-05-01T03:25:50.044Z,8.93
2018-05-01T03:28:18.556Z,9.10
2018-05-01T03:30:47.083Z,8.70
2018-05-01T03:33:15.640Z,8.73
2018-05-01T03:35:44.157Z,8.53
2018-05-01T03:38:12.668Z,8.80
2018-05-01T03:40:41.231Z,8.10
2018-05-01T03:43:09.760Z,7.97
2018-05-01T03:45:38.280Z,8.60
2018-05-01T03:48:06.913Z,8.43
2018-05-01T03:50:35.165Z,8.13
2018-05-01T03:53:03.677Z,7.93
2018-05-01T03:55:32.235Z,7.97
2018-05-01T03:58:00.487Z,8.40
2018-05-01T04:00:29.005Z,8.13
2018-05-01T04:02:57.269Z,8.80
2018-05-01T04:05:25.501Z,7.53
2018-05-01T04:07:54.016Z,7.30
2018-05-01T04:10:22.563Z,8.17
2018-05-01T04:12:51.070Z,7.80
2018-05-01T04:15:19.307Z,9.03
2018-05-01T04:17:47.846Z,7.80
2018-05-01T04:20:16.350Z,8.10
2018-05-01T04:22:44.855Z,6.87
2018-05-01T04:25:13.416Z,7.10
2018-05-01T04:27:41.654Z,7.57
2018-05-01T04:30:10.164Z,7.80
2018-05-01T04:32:38.705Z,8.03
2018-05-01T04:35:07.221Z,8.83
2018-05-01T04:37:35.736Z,8.10
2018-05-01T04:40:04.293Z,9.00
2018-05-01T04:42:32.802Z,9.77
2018-05-01T04:45:01.322Z,8.50
2018-05-01T04:47:29.965Z,8.70
2018-05-01T04:49:58.476Z,9.00
2018-05-01T04:52:26.983Z,6.90
2018-05-01T04:54:55.518Z,6.07
2018-05-01T04:57:24.031Z,5.47
2018-05-01T04:59:52.552Z,4.00
2018-05-01T05:02:21.119Z,3.33
2018-05-01T05:04:49.622Z,2.80
2018-05-01T05:07:18.122Z,3.00
2018-05-01T05:09:46.671Z,2.43
2018-05-01T05:12:15.170Z,2.40
2018-05-01T05:14:43.671Z,2.57
2018-05-01T05:17:12.225Z,2.33
2018-05-01T05:19:41.242Z,2.97
2018-05-01T05:22:09.771Z,2.90
2018-05-01T05:24:38.315Z,2.90
2018-05-01T05:27:06.822Z,2.30
2018-05-01T05:29:35.337Z,2.93
2018-05-01T05:32:03.889Z,4.00
2018-05-01T05:34:32.456Z,4.90
2018-05-01T05:37:00.974Z,4.47
2018-05-01T05:39:29.631Z,5.27
2018-05-01T05:41:58.147Z,5.27
2018-05-01T05:44:26.663Z,5.23
2018-05-01T05:46:55.220Z,4.80
2018-05-01T05:49:23.504Z,4.70
2018-05-01T05:51:52.009Z,4.50
2018-05-01T05:54:20.577Z,4.83
2018-05-01T05:56:49.320Z,4.80
2018-05-01T05:59:17.826Z,5.10
2018-05-01T06:01:46.411Z,4.87
2018-05-01T06:04:14.916Z,5.53
2018-05-01T06:06:43.452Z,5.03
2018-05-01T06:09:12.005Z,4.50
2018-05-01T06:11:40.517Z,4.57
2018-05-01T06:14:09.018Z,4.67
2018-05-01T06:16:37.554Z,4.70
2018-05-01T06:19:06.059Z,3.93
2018-05-01T06:21:34.558Z,3.10
2018-05-01T06:24:03.116Z,3.17
2018-05-01T06:26:31.631Z,3.27
2018-05-01T06:29:00.140Z,2.63
2018-05-01T06:31:28.701Z,2.87
2018-05-01T06:33:57.299Z,2.83
2018-05-01T06:36:25.824Z,3.10
2018-05-01T06:38:54.382Z,3.43
2018-05-01T06:41:22.890Z,3.00
2018-05-01T06:43:51.412Z,3.00
2018-05-01T06:46:19.955Z,3.17
2018-05-01T06:48:48.468Z,3.90
2018-05-01T06:51:16.986Z,5.53
2018-05-01T06:53:45.537Z,3.63
2018-05-01T06:56:14.031Z,3.50
2018-05-01T06:58:42.530Z,3.00
2018-05-01T07:01:11.071Z,3.03
2018-05-01T07:03:39.604Z,2.90
2018-05-01T07:06:08.107Z,2.90
2018-05-01T07:08:36.667Z,2.80
2018-05-01T07:11:05.747Z,2.70
2018-05-01T07:13:34.855Z,2.80
2018-05-01T07:16:03.998Z,2.87
2018-05-01T07:18:33.097Z,3.03
2018-05-01T07:21:02.176Z,2.90
2018-05-01T07:23:31.311Z,2.87
2018-05-01T07:26:00.629Z,2.78
2018-05-01T07:28:29.736Z,3.00
2018-05-01T07:30:58.881Z,2.80
2018-05-01T07:33:27.967Z,2.35
2018-05-01T07:35:56.795Z,2.20
2018-05-01T07:38:26.056Z,2.03
2018-05-01T07:40:55.140Z,1.85
2018-05-01T07:43:24.249Z,2.12
2018-05-01T07:45:53.385Z,2.15
2018-05-01T07:48:22.482Z,2.30
2018-05-01T07:50:51.588Z,1.65
2018-05-01T07:53:20.715Z,1.80
2018-05-01T07:55:49.811Z,2.50
2018-05-01T07:58:18.910Z,2.95
2018-05-01T08:00:48.058Z,2.83
2018-05-01T08:03:17.139Z,2.30
2018-05-01T08:05:46.232Z,2.30
2018-05-01T08:08:15.355Z,2.55
2018-05-01T08:10:43.876Z,2.50
2018-05-01T08:13:12.383Z,2.60
2018-05-01T08:15:40.923Z,2.90
2018-05-01T08:18:09.441Z,2.90
2018-05-01T08:20:37.955Z,3.07
2018-05-01T08:23:06.620Z,2.87
2018-05-01T08:25:35.219Z,2.43
2018-05-01T08:28:05.144Z,2.87
2018-05-01T08:30:33.488Z,2.90
2018-05-01T08:33:02.499Z,3.00
2018-05-01T08:35:31.046Z,13.53
2018-05-01T08:37:59.614Z,3.10
2018-05-01T08:40:28.133Z,3.07
2018-05-01T08:42:56.660Z,3.07
2018-05-01T08:45:25.313Z,3.10
2018-05-01T08:47:53.964Z,2.63
2018-05-01T08:50:22.467Z,2.73
2018-05-01T08:55:32.549Z,2.77
2018-05-01T08:58:01.189Z,2.53
2018-05-01T09:00:29.699Z,2.60
2018-05-01T09:02:58.260Z,2.53
2018-05-01T09:05:26.773Z,2.80
2018-05-01T09:07:55.312Z,2.33
2018-05-01T09:10:23.877Z,2.70
2018-05-01T09:12:52.389Z,2.40
2018-05-01T09:15:20.918Z,2.37
2018-05-01T09:17:49.592Z,2.30
2018-05-01T09:20:17.977Z,2.40
2018-05-01T09:22:46.475Z,2.47
2018-05-01T09:25:15.051Z,2.30
2018-05-01T09:27:43.567Z,2.10
2018-05-01T09:30:12.075Z,2.27
2018-05-01T09:32:40.622Z,2.10
2018-05-01T09:35:09.541Z,2.20
2018-05-01T09:37:38.834Z,2.20
2018-05-01T09:40:07.976Z,2.00
2018-05-01T09:42:36.499Z,1.87
2018-05-01T09:45:05.644Z,2.00
2018-05-01T09:47:34.829Z,2.00
2018-05-01T09:50:04.064Z,1.70
2018-05-01T09:52:34.256Z,2.00
2018-05-01T09:55:04.178Z,1.70
2018-05-01T09:57:33.801Z,1.73
2018-05-01T10:00:03.485Z,2.03
2018-05-01T10:02:32.933Z,2.13
2018-05-01T10:05:02.570Z,2.40
2018-05-01T10:07:32.187Z,2.30
2018-05-01T10:10:01.850Z,1.60
2018-05-01T10:12:31.462Z,2.03
2018-05-01T10:15:01.075Z,2.17
2018-05-01T10:17:30.728Z,1.80
2018-05-01T10:20:00.175Z,1.70
2018-05-01T10:22:29.919Z,1.87
2018-05-01T10:24:59.358Z,1.90
2018-05-01T10:27:29.307Z,1.67
2018-05-01T10:29:58.929Z,1.80
2018-05-01T10:32:28.587Z,1.57
2018-05-01T10:34:58.212Z,1.70
2018-05-01T10:37:27.827Z,1.63
2018-05-01T10:39:58.059Z,1.40
2018-05-01T10:42:27.674Z,1.70
2018-05-01T10:44:57.311Z,1.65
2018-05-01T10:47:26.963Z,1.57
2018-05-01T10:49:56.621Z,1.90
2018-05-01T10:52:26.215Z,1.83
2018-05-01T10:54:55.880Z,1.67
2018-05-01T10:57:26.062Z,1.65
2018-05-01T10:59:56.293Z,1.70
2018-05-01T11:02:26.546Z,1.50
2018-05-01T11:04:56.755Z,2.00
2018-05-01T11:07:27.009Z,1.85
2018-05-01T11:09:56.645Z,1.70
2018-05-01T11:12:26.195Z,1.80
2018-05-01T11:14:55.855Z,1.50
2018-05-01T11:17:25.555Z,1.77
2018-05-01T11:19:55.343Z,1.60
2018-05-01T11:22:25.013Z,1.57
2018-05-01T11:24:54.395Z,1.70
2018-05-01T11:27:24.017Z,1.60
2018-05-01T11:29:53.687Z,1.40
2018-05-01T11:32:23.303Z,1.50
2018-05-01T11:34:53.007Z,1.40
2018-05-01T11:37:22.680Z,1.50
2018-05-01T11:39:52.297Z,1.60
2018-05-01T11:42:22.051Z,1.50
2018-05-01T11:44:51.799Z,1.70
2018-05-01T11:47:21.572Z,1.43
2018-05-01T11:49:51.217Z,1.70
2018-05-01T11:52:21.448Z,1.50
2018-05-01T11:54:51.642Z,1.70
2018-05-01T11:57:21.288Z,2.00
2018-05-01T11:59:50.928Z,2.13
2018-05-01T12:02:20.548Z,2.35
2018-05-01T12:04:50.264Z,2.47
2018-05-01T12:07:20.043Z,2.10
2018-05-01T12:09:49.653Z,2.00
2018-05-01T12:12:19.271Z,2.00
2018-05-01T12:14:48.935Z,2.00
2018-05-01T12:17:18.556Z,2.00
2018-05-01T12:19:48.175Z,1.90
2018-05-01T12:22:17.862Z,4.23
2018-05-01T12:24:47.483Z,2.20
2018-05-01T12:27:17.126Z,1.83
2018-05-01T12:29:46.787Z,1.80
2018-05-01T12:32:16.402Z,2.10
2018-05-01T12:34:46.049Z,1.97
2018-05-01T12:37:15.724Z,1.63
2018-05-01T12:39:45.352Z,2.10
2018-05-01T12:42:14.771Z,2.43
2018-05-01T12:44:44.175Z,2.30
2018-05-01T12:47:14.397Z,2.30
2018-05-01T12:49:44.033Z,2.40
2018-05-01T12:52:13.706Z,2.30
2018-05-01T12:54:43.331Z,2.30
2018-05-01T12:57:13.015Z,2.30
2018-05-01T12:59:42.643Z,1.83
2018-05-01T13:02:12.268Z,2.27
2018-05-01T13:04:41.943Z,2.10
2018-05-01T13:07:11.732Z,2.07
2018-05-01T13:09:41.356Z,2.00
2018-05-01T13:12:11.081Z,1.80
2018-05-01T13:14:40.691Z,2.30
2018-05-01T13:17:10.341Z,1.90
2018-05-01T13:19:40.583Z,2.00
2018-05-01T13:22:09.619Z,1.70
2018-05-01T13:24:39.011Z,2.00
2018-05-01T13:27:08.447Z,1.50
2018-05-01T13:29:38.073Z,1.90
2018-05-01T13:32:07.710Z,1.47
2018-05-01T13:34:37.373Z,1.57
2018-05-01T13:37:07.000Z,1.57
2018-05-01T13:39:36.717Z,1.70
2018-05-01T13:42:06.378Z,1.70
2018-05-01T13:44:36.030Z,1.50
2018-05-01T13:47:05.476Z,1.80
2018-05-01T13:49:35.140Z,1.83
2018-05-01T13:52:04.256Z,1.83
2018-05-01T13:54:33.879Z,1.77
2018-05-01T13:57:03.596Z,1.70
2018-05-01T13:59:33.386Z,1.83
2018-05-01T14:02:02.772Z,1.87
2018-05-01T14:04:32.517Z,1.57
2018-05-01T14:07:02.275Z,1.60
2018-05-01T14:09:31.973Z,1.50
2018-05-01T14:12:01.628Z,1.30
2018-05-01T14:14:31.254Z,1.30
2018-05-01T14:17:00.888Z,1.30
2018-05-01T14:19:30.583Z,2.10
2018-05-01T14:22:00.194Z,1.60
2018-05-01T14:24:29.812Z,1.97
2018-05-01T14:26:59.461Z,1.87
2018-05-01T14:29:29.089Z,1.90
2018-05-01T14:31:58.726Z,1.80
2018-05-01T14:34:28.408Z,2.47
2018-05-01T14:36:58.028Z,2.70
2018-05-01T14:39:27.849Z,2.13
2018-05-01T14:41:57.506Z,2.10
2018-05-01T14:44:27.124Z,2.17
2018-05-01T14:46:56.745Z,2.27
2018-05-01T14:49:26.428Z,2.13
2018-05-01T14:51:56.647Z,2.33
2018-05-01T14:54:26.876Z,2.20
2018-05-01T14:56:57.119Z,2.30
2018-05-01T14:59:27.083Z,2.45
2018-05-01T15:01:57.296Z,2.22
2018-05-01T15:04:27.531Z,5.47
2018-05-01T15:09:35.185Z,3.62
2018-05-01T15:12:05.370Z,3.28
2018-05-01T15:14:35.138Z,2.73
2018-05-01T15:17:05.408Z,3.30
2018-05-01T15:19:35.027Z,2.90
2018-05-01T15:22:04.668Z,3.07
2018-05-01T15:24:34.342Z,2.70
2018-05-01T15:27:03.495Z,2.80
2018-05-01T15:29:33.119Z,2.80
2018-05-01T15:32:02.770Z,2.53
2018-05-01T15:34:32.478Z,2.73
2018-05-01T15:37:02.104Z,3.27
2018-05-01T15:39:31.785Z,3.50
2018-05-01T15:42:01.419Z,3.20
2018-05-01T15:44:31.058Z,4.70
2018-05-01T15:47:00.714Z,4.27
2018-05-01T15:49:30.358Z,4.00
2018-05-01T15:52:00.073Z,4.10
2018-05-01T15:54:29.728Z,4.13
2018-05-01T15:56:59.363Z,3.80
2018-05-01T15:59:28.982Z,3.93
2018-05-01T16:01:58.629Z,3.73
2018-05-01T16:04:28.029Z,3.60
2018-05-01T16:06:57.656Z,3.77
2018-05-01T16:09:27.314Z,3.37
2018-05-01T16:11:56.960Z,3.07
2018-05-01T16:14:26.338Z,3.77
2018-05-01T16:16:55.759Z,3.33
2018-05-01T16:19:25.152Z,3.07
2018-05-01T16:21:54.768Z,3.57
2018-05-01T16:24:25.032Z,3.90
2018-05-01T16:26:54.689Z,4.00
2018-05-01T16:29:24.079Z,4.13
2018-05-01T16:31:53.735Z,3.40
2018-05-01T16:34:23.346Z,3.40
2018-05-01T16:36:52.991Z,3.60
2018-05-01T16:39:22.701Z,2.93
2018-05-01T16:41:52.374Z,3.90
2018-05-01T16:44:22.030Z,3.70
2018-05-01T16:46:51.696Z,3.40
2018-05-01T16:49:21.317Z,3.60
2018-05-01T16:51:50.950Z,3.50
2018-05-01T16:54:20.608Z,3.57
2018-05-01T16:56:50.241Z,2.90
2018-05-01T16:59:20.153Z,2.93
2018-05-01T17:01:49.824Z,3.13
2018-05-01T17:04:19.441Z,3.70
2018-05-01T17:06:49.318Z,4.30
2018-05-01T17:09:18.978Z,5.30
2018-05-01T17:11:48.616Z,4.57
2018-05-01T17:14:18.284Z,4.10
2018-05-01T17:16:47.947Z,3.47
2018-05-01T17:19:17.418Z,3.80
2018-05-01T17:21:47.040Z,4.20
2018-05-01T17:24:16.474Z,4.13
2018-05-01T17:26:46.093Z,3.57
2018-05-01T17:29:16.263Z,3.50
2018-05-01T17:31:46.069Z,3.80
2018-05-01T17:34:15.703Z,4.00
2018-05-01T17:36:45.350Z,4.33
2018-05-01T17:39:15.136Z,4.83
2018-05-01T17:41:44.760Z,6.03
2018-05-01T17:44:14.374Z,7.10
2018-05-01T17:46:44.209Z,6.10
2018-05-01T17:49:14.063Z,6.77
2018-05-01T17:51:43.811Z,5.40
2018-05-01T17:54:13.482Z,5.53
2018-05-01T17:56:43.096Z,5.13
2018-05-01T17:59:12.744Z,5.47
2018-05-01T18:01:42.500Z,5.30
2018-05-01T18:04:12.110Z,5.50
2018-05-01T18:06:41.748Z,5.83
2018-05-01T18:09:11.386Z,6.27
2018-05-01T18:11:41.029Z,6.13
2018-05-01T18:14:10.658Z,6.43
2018-05-01T18:16:40.247Z,6.40
2018-05-01T18:19:09.855Z,6.30
2018-05-01T18:21:39.492Z,6.30
2018-05-01T18:24:09.152Z,7.20
2018-05-01T18:26:38.776Z,7.13
2018-05-01T18:29:08.400Z,8.00
2018-05-01T18:31:38.072Z,8.30
2018-05-01T18:34:07.724Z,10.53
2018-05-01T18:36:37.346Z,9.87
2018-05-01T18:39:06.453Z,43.63
2018-05-01T18:41:36.102Z,168.63
2018-05-01T18:44:06.068Z,102.62
2018-05-01T18:46:35.739Z,46.30
2018-05-01T18:49:05.373Z,31.83
2018-05-01T18:51:35.114Z,18.90
2018-05-01T18:54:04.774Z,17.77
2018-05-01T18:56:34.477Z,19.63
2018-05-01T18:59:04.107Z,19.87
2018-05-01T19:01:33.779Z,37.43
2018-05-01T19:04:03.417Z,36.83
2018-05-01T19:06:33.186Z,24.93
2018-05-01T19:09:02.859Z,22.03
2018-05-01T19:11:31.990Z,20.47
2018-05-01T19:14:01.387Z,18.37
2018-05-01T19:16:31.075Z,19.07
2018-05-01T19:19:00.843Z,17.03
2018-05-01T19:21:30.501Z,15.93
2018-05-01T19:24:00.171Z,15.53
2018-05-01T19:26:29.804Z,19.13
2018-05-01T19:28:59.442Z,23.93
2018-05-01T19:31:29.123Z,25.50
2018-05-01T19:33:58.768Z,25.00
2018-05-01T19:36:28.416Z,21.70
2018-05-01T19:38:58.091Z,18.93
2018-05-01T19:41:27.738Z,19.27
2018-05-01T19:43:57.410Z,19.40
2018-05-01T19:46:27.095Z,20.13
2018-05-01T19:48:56.719Z,18.80
2018-05-01T19:51:27.211Z,20.20
2018-05-01T19:53:56.874Z,20.60
2018-05-01T19:56:27.115Z,20.03
2018-05-01T19:58:56.934Z,20.13
2018-05-01T20:01:26.624Z,22.07
2018-05-01T20:03:56.260Z,21.37
2018-05-01T20:06:25.899Z,19.40
2018-05-01T20:08:55.651Z,17.77
2018-05-01T20:11:26.262Z,16.90
2018-05-01T20:13:55.921Z,19.17
2018-05-01T20:16:25.588Z,24.30
2018-05-01T20:18:55.230Z,20.83
2018-05-01T20:21:24.850Z,22.00
2018-05-01T20:23:54.522Z,22.37
2018-05-01T20:26:24.160Z,22.83
2018-05-01T20:28:53.799Z,21.47
2018-05-01T20:31:23.463Z,21.97
2018-05-01T20:38:05.309Z,17.33
2018-05-01T20:40:34.951Z,18.07
2018-05-01T20:43:04.593Z,18.97
2018-05-01T20:45:34.271Z,19.53
2018-05-01T20:48:03.638Z,22.93
2018-05-01T20:50:33.288Z,18.50
2018-05-01T20:53:02.978Z,18.40
2018-05-01T20:55:32.635Z,16.80
2018-05-01T20:58:02.275Z,18.93
2018-05-01T21:00:31.943Z,17.90
2018-05-01T21:03:01.582Z,17.50
2018-05-01T21:05:31.280Z,17.60
2018-05-01T21:08:00.960Z,15.03
2018-05-01T21:10:30.594Z,15.57
2018-05-01T21:13:00.268Z,14.53
2018-05-01T21:15:29.637Z,13.73
2018-05-01T21:17:59.267Z,13.00
2018-05-01T21:20:28.937Z,13.43
2018-05-01T21:22:58.577Z,8.93
2018-05-01T21:25:28.243Z,8.53
2018-05-01T21:27:57.903Z,8.90
2018-05-01T21:30:27.531Z,7.70
2018-05-01T21:32:57.179Z,7.90
2018-05-01T21:35:26.843Z,8.00
2018-05-01T21:37:56.182Z,7.37
2018-05-01T21:40:25.819Z,8.30
2018-05-01T21:42:55.557Z,7.40
2018-05-01T21:45:25.346Z,6.80
2018-05-01T21:47:54.994Z,7.20
2018-05-01T21:50:24.668Z,6.33
2018-05-01T21:52:54.289Z,5.27
2018-05-01T21:55:23.936Z,4.93
2018-05-01T21:57:53.605Z,4.60
2018-05-01T22:00:23.232Z,4.10
2018-05-01T22:02:52.591Z,3.80
2018-05-01T22:05:22.323Z,5.10
2018-05-01T22:07:51.951Z,4.23
2018-05-01T22:10:21.295Z,3.70
2018-05-01T22:12:50.922Z,3.97
2018-05-01T22:15:20.551Z,3.73
2018-05-01T22:17:50.167Z,3.40
2018-05-01T22:20:19.832Z,3.73
2018-05-01T22:22:49.455Z,3.87
2018-05-01T22:25:19.084Z,4.50
2018-05-01T22:27:48.747Z,4.50
2018-05-01T22:30:18.369Z,4.00
2018-05-01T22:32:48.083Z,3.03
2018-05-01T22:35:17.714Z,3.20
2018-05-01T22:37:47.325Z,3.83
2018-05-01T22:40:16.991Z,3.53
2018-05-01T22:42:46.602Z,3.40
2018-05-01T22:45:16.209Z,3.20
2018-05-01T22:47:45.864Z,2.67
2018-05-01T22:50:15.474Z,3.00
2018-05-01T22:52:45.100Z,2.60
2018-05-01T22:55:14.772Z,2.13
2018-05-01T22:57:44.400Z,2.40
2018-05-01T23:00:13.468Z,2.20
2018-05-01T23:02:42.658Z,2.00
2018-05-01T23:05:12.276Z,2.10
2018-05-01T23:07:41.913Z,1.83
2018-05-01T23:10:11.576Z,2.00
2018-05-01T23:12:41.198Z,2.20
2018-05-01T23:15:10.835Z,2.03
2018-05-01T23:17:40.500Z,2.33
2018-05-01T23:20:10.148Z,2.03
2018-05-01T23:22:39.793Z,2.10
2018-05-01T23:25:09.459Z,2.30
2018-05-01T23:27:39.119Z,1.90
2018-05-01T23:30:08.759Z,2.00
2018-05-01T23:32:38.152Z,2.07
2018-05-01T23:35:07.762Z,2.10
2018-05-01T23:37:37.105Z,2.00
2018-05-01T23:40:06.775Z,1.80
2018-05-01T23:42:36.401Z,1.73
2018-05-01T23:45:06.024Z,1.60
2018-05-01T23:47:35.698Z,1.50
2018-05-01T23:50:05.088Z,1.57
2018-05-01T23:52:34.711Z,1.50
2018-05-01T23:55:04.398Z,1.30
2018-05-01T23:57:34.040Z,1.60
